Wetterdaten: Woche 18.11.13 - 24.11.13 (KW47)
Datum Zeit Temp. A. Feuchte A. Luftdruck Regen Wind Richtung Taupunkt Windchill Windben
18.11.2013 00:00 5,4 C 80 % 1021,0 hPa 0,0 l/m 4,5 km/h N 2,2 C 5,4 C 13,7 km/h
18.11.2013 01:00 5,3 C 80 % 1020,4 hPa 0,0 l/m 4,1 km/h N 2,2 C 5,3 C 14,1 km/h
18.11.2013 02:00 5,1 C 81 % 1020,0 hPa 0,0 l/m 4,9 km/h N 2,1 C 4,7 C 16,1 km/h
18.11.2013 03:00 5,2 C 81 % 1019,4 hPa 0,0 l/m 2,3 km/h N 2,2 C 5,2 C 11,7 km/h
18.11.2013 04:00 5,2 C 82 % 1018,8 hPa 0,0 l/m 4,2 km/h N 2,3 C 5,2 C 15,7 km/h
18.11.2013 05:00 5,0 C 82 % 1018,3 hPa 0,0 l/m 2,9 km/h N 2,2 C 5,0 C 11,7 km/h
18.11.2013 06:00 4,9 C 83 % 1017,9 hPa 0,0 l/m 2,7 km/h N 2,3 C 4,9 C 13,3 km/h
18.11.2013 07:00 4,9 C 84 % 1017,8 hPa 0,0 l/m 3,1 km/h N 2,5 C 4,9 C 11,3 km/h
18.11.2013 08:00 5,1 C 83 % 1017,5 hPa 0,0 l/m 1,8 km/h N 2,4 C 5,1 C 8,4 km/h
18.11.2013 09:00 5,6 C 83 % 1017,3 hPa 0,0 l/m 5,6 km/h N 2,9 C 5,3 C 17,7 km/h
18.11.2013 10:00 6,3 C 85 % 1016,7 hPa 0,0 l/m 9,1 km/h N 4,1 C 4,2 C 22,5 km/h
18.11.2013 11:00 7,3 C 85 % 1016,0 hPa 0,0 l/m 8,2 km/h N 4,9 C 5,9 C 22,5 km/h
18.11.2013 12:00 8,2 C 82 % 1015,1 hPa 0,0 l/m 8,7 km/h N 5,3 C 6,4 C 24,5 km/h
18.11.2013 13:00 8,4 C 81 % 1014,6 hPa 0,0 l/m 10,2 km/h N 5,3 C 5,7 C 23,3 km/h
18.11.2013 14:00 8,6 C 81 % 1014,1 hPa 0,0 l/m 8,1 km/h N 5,4 C 7,3 C 20,9 km/h
18.11.2013 15:00 8,3 C 81 % 1013,6 hPa 0,0 l/m 6,6 km/h N 5,2 C 7,8 C 21,3 km/h
18.11.2013 16:00 7,6 C 83 % 1013,8 hPa 0,0 l/m 3,6 km/h N 4,9 C 7,6 C 11,7 km/h
18.11.2013 17:00 7,0 C 84 % 1014,0 hPa 0,0 l/m 1,0 km/h N 4,5 C 7,0 C 6,8 km/h
18.11.2013 18:00 6,8 C 85 % 1014,1 hPa 0,0 l/m 0,7 km/h N 4,5 C 6,8 C 7,2 km/h
18.11.2013 19:00 6,7 C 85 % 1013,9 hPa 0,0 l/m 1,1 km/h N 4,4 C 6,7 C 8,4 km/h
18.11.2013 20:00 6,6 C 85 % 1013,7 hPa 0,0 l/m 2,2 km/h N 4,3 C 6,6 C 11,3 km/h
18.11.2013 21:00 6,4 C 85 % 1013,6 hPa 0,0 l/m 2,6 km/h N 4,0 C 6,4 C 10,1 km/h
18.11.2013 22:00 6,4 C 84 % 1013,4 hPa 0,0 l/m 2,7 km/h N 3,9 C 6,4 C 10,1 km/h
18.11.2013 23:00 6,3 C 84 % 1012,8 hPa 0,0 l/m 1,6 km/h N 3,8 C 6,3 C 8,4 km/h
19.11.2013 00:00 6,2 C 84 % 1012,4 hPa 0,0 l/m 0,3 km/h N 3,7 C 6,2 C 4,0 km/h
19.11.2013 01:00 6,0 C 84 % 1012,0 hPa 0,0 l/m 0,4 km/h N 3,5 C 6,0 C 2,8 km/h
19.11.2013 02:00 5,8 C 84 % 1011,5 hPa 0,0 l/m 0,2 km/h N 3,4 C 5,8 C 3,6 km/h
19.11.2013 03:00 5,7 C 84 % 1010,9 hPa 0,0 l/m 0,5 km/h N 3,2 C 5,7 C 4,0 km/h
19.11.2013 04:00 5,7 C 83 % 1010,5 hPa 0,0 l/m 0,3 km/h N 3,0 C 5,7 C 3,6 km/h
19.11.2013 05:00 5,5 C 83 % 1010,1 hPa 0,0 l/m 1,4 km/h N 2,8 C 5,5 C 8,8 km/h
19.11.2013 06:00 6,3 C 84 % 1010,3 hPa 0,0 l/m 5,6 km/h N 3,7 C 6,0 C 15,7 km/h
19.11.2013 07:00 6,4 C 84 % 1010,5 hPa 0,0 l/m 11,5 km/h N 3,9 C 2,8 C 27,8 km/h
19.11.2013 08:00 6,5 C 83 % 1011,1 hPa 0,0 l/m 12,5 km/h N 3,7 C 2,2 C 27,4 km/h
19.11.2013 09:00 6,4 C 82 % 1010,8 hPa 0,0 l/m 8,9 km/h N 3,6 C 4,4 C 22,9 km/h
19.11.2013 10:00 6,7 C 83 % 1010,3 hPa 0,0 l/m 10,9 km/h N 3,9 C 3,4 C 24,5 km/h
19.11.2013 11:00 7,0 C 84 % 1009,7 hPa 0,0 l/m 9,6 km/h N 4,5 C 4,7 C 25,0 km/h
19.11.2013 12:00 6,7 C 85 % 1009,3 hPa 0,0 l/m 6,5 km/h N 4,3 C 5,7 C 20,1 km/h
19.11.2013 13:00 6,8 C 85 % 1008,8 hPa 0,0 l/m 10,8 km/h N 4,5 C 3,7 C 25,3 km/h
19.11.2013 14:00 6,9 C 86 % 1008,3 hPa 0,0 l/m 4,9 km/h N 4,7 C 6,8 C 19,7 km/h
19.11.2013 15:00 6,9 C 86 % 1007,8 hPa 0,0 l/m 7,7 km/h N 4,7 C 5,6 C 20,5 km/h
19.11.2013 16:00 7,0 C 85 % 1007,4 hPa 0,0 l/m 5,1 km/h N 4,7 C 6,5 C 15,7 km/h
19.11.2013 17:00 6,9 C 85 % 1007,2 hPa 0,0 l/m 4,1 km/h N 4,5 C 6,9 C 14,1 km/h
19.11.2013 18:00 6,8 C 85 % 1007,3 hPa 0,0 l/m 7,4 km/h N 4,5 C 5,8 C 19,3 km/h
19.11.2013 19:00 6,8 C 85 % 1006,7 hPa 0,0 l/m 5,2 km/h N 4,5 C 6,6 C 18,9 km/h
19.11.2013 20:00 6,6 C 86 % 1006,0 hPa 0,0 l/m 2,0 km/h N 4,4 C 6,6 C 8,0 km/h
19.11.2013 21:00 6,4 C 85 % 1005,3 hPa 0,8 l/m 1,5 km/h N 4,0 C 6,4 C 6,8 km/h
19.11.2013 22:00 6,2 C 84 % 1004,9 hPa 0,3 l/m 1,4 km/h N 3,6 C 6,2 C 7,6 km/h
19.11.2013 23:00 6,1 C 83 % 1004,4 hPa 0,0 l/m 1,4 km/h N 3,4 C 6,1 C 7,2 km/h
20.11.2013 00:00 6,1 C 82 % 1003,8 hPa 0,0 l/m 1,1 km/h N 3,3 C 6,1 C 5,2 km/h
20.11.2013 01:00 6,1 C 82 % 1003,5 hPa 0,0 l/m 0,3 km/h N 3,2 C 6,1 C 3,6 km/h
20.11.2013 02:00 6,3 C 81 % 1002,6 hPa 0,3 l/m 3,3 km/h N 3,3 C 6,3 C 12,9 km/h
20.11.2013 03:00 6,4 C 80 % 1001,4 hPa 0,0 l/m 5,6 km/h N 3,2 C 6,2 C 17,7 km/h
20.11.2013 04:00 6,4 C 80 % 1001,1 hPa 0,3 l/m 6,1 km/h N 3,2 C 6,3 C 16,1 km/h
20.11.2013 05:00 6,4 C 80 % 1001,5 hPa 0,0 l/m 3,1 km/h N 3,2 C 6,4 C 11,3 km/h
20.11.2013 06:00 6,6 C 80 % 1002,2 hPa 0,0 l/m 0,4 km/h N 3,4 C 6,6 C 2,8 km/h
20.11.2013 07:00 6,7 C 80 % 1003,1 hPa 0,0 l/m 0,3 km/h N 3,5 C 6,7 C 2,8 km/h
20.11.2013 08:00 6,4 C 80 % 1003,4 hPa 0,0 l/m 0,1 km/h N 3,2 C 6,4 C 2,0 km/h
20.11.2013 09:00 6,9 C 80 % 1003,3 hPa 0,0 l/m 1,1 km/h N 3,7 C 6,9 C 4,8 km/h
20.11.2013 10:00 7,3 C 81 % 1003,3 hPa 0,0 l/m 1,7 km/h N 4,2 C 7,3 C 7,2 km/h
20.11.2013 11:00 7,6 C 83 % 1002,7 hPa 0,0 l/m 1,0 km/h N 4,9 C 7,6 C 4,8 km/h
20.11.2013 12:00 7,8 C 85 % 1002,3 hPa 0,0 l/m 0,8 km/h N 5,4 C 7,8 C 4,8 km/h
20.11.2013 13:00 7,9 C 85 % 1002,1 hPa 0,0 l/m 0,0 km/h N 5,6 C 7,9 C 1,2 km/h
20.11.2013 14:00 7,9 C 86 % 1002,2 hPa 0,0 l/m 0,0 km/h N 5,6 C 7,9 C 0,4 km/h
20.11.2013 15:00 7,7 C 85 % 1002,3 hPa 0,8 l/m 0,0 km/h N 5,4 C 7,7 C 0,0 km/h
20.11.2013 16:00 7,0 C 85 % 1002,4 hPa 0,0 l/m 1,8 km/h N 4,6 C 7,0 C 7,2 km/h
20.11.2013 17:00 6,9 C 79 % 1002,9 hPa 0,0 l/m 3,1 km/h N 3,5 C 6,9 C 12,4 km/h
20.11.2013 18:00 6,8 C 76 % 1003,5 hPa 0,0 l/m 3,0 km/h N 2,8 C 6,8 C 10,1 km/h
20.11.2013 19:00 6,5 C 76 % 1003,6 hPa 0,0 l/m 2,9 km/h N 2,6 C 6,5 C 9,3 km/h
20.11.2013 20:00 6,3 C 77 % 1003,6 hPa 0,0 l/m 2,9 km/h N 2,6 C 6,3 C 10,1 km/h
20.11.2013 21:00 6,3 C 76 % 1003,6 hPa 0,0 l/m 1,6 km/h N 2,4 C 6,3 C 9,2 km/h
20.11.2013 22:00 5,5 C 78 % 1003,7 hPa 0,0 l/m 0,0 km/h N 1,9 C 5,5 C 0,8 km/h
20.11.2013 23:00 4,9 C 81 % 1003,9 hPa 0,0 l/m 0,2 km/h N 1,8 C 4,9 C 2,4 km/h
21.11.2013 00:00 4,9 C 83 % 1003,9 hPa 0,0 l/m 0,0 km/h N 2,2 C 4,9 C 0,8 km/h
21.11.2013 01:00 4,9 C 83 % 1003,4 hPa 0,0 l/m 0,2 km/h N 2,3 C 4,9 C 2,4 km/h
21.11.2013 02:00 5,1 C 82 % 1003,2 hPa 0,0 l/m 0,0 km/h N 2,2 C 5,1 C 0,0 km/h
21.11.2013 03:00 5,0 C 83 % 1002,9 hPa 0,0 l/m 0,0 km/h N 2,4 C 5,0 C 0,0 km/h
21.11.2013 04:00 5,0 C 83 % 1002,9 hPa 0,0 l/m 0,4 km/h N 2,4 C 5,0 C 4,0 km/h
21.11.2013 05:00 5,0 C 84 % 1002,5 hPa 0,0 l/m 0,0 km/h N 2,4 C 5,0 C 0,8 km/h
21.11.2013 06:00 5,0 C 85 % 1002,2 hPa 0,0 l/m 0,2 km/h N 2,7 C 5,0 C 3,2 km/h
21.11.2013 07:00 5,2 C 85 % 1002,1 hPa 0,0 l/m 2,3 km/h N 2,9 C 5,2 C 9,6 km/h
21.11.2013 08:00 5,6 C 85 % 1002,1 hPa 0,0 l/m 4,8 km/h N 3,3 C 5,6 C 14,1 km/h
21.11.2013 09:00 5,9 C 84 % 1001,9 hPa 0,0 l/m 4,0 km/h N 3,4 C 5,9 C 13,3 km/h
21.11.2013 10:00 5,9 C 83 % 1001,5 hPa 0,0 l/m 1,9 km/h N 3,3 C 5,9 C 8,9 km/h
21.11.2013 11:00 6,0 C 85 % 1000,8 hPa 0,0 l/m 1,8 km/h N 3,7 C 6,0 C 9,2 km/h
21.11.2013 12:00 6,1 C 85 % 1000,2 hPa 0,0 l/m 1,8 km/h N 3,8 C 6,1 C 10,5 km/h
21.11.2013 13:00 6,4 C 84 % 999,7 hPa 0,0 l/m 3,6 km/h N 3,9 C 6,4 C 14,1 km/h
21.11.2013 14:00 7,0 C 83 % 999,5 hPa 0,0 l/m 3,8 km/h N 4,3 C 7,0 C 12,9 km/h
21.11.2013 15:00 7,3 C 83 % 999,8 hPa 0,0 l/m 2,2 km/h N 4,5 C 7,3 C 12,1 km/h
21.11.2013 16:00 7,4 C 83 % 1000,0 hPa 0,0 l/m 3,3 km/h N 4,6 C 7,4 C 12,9 km/h
21.11.2013 17:00 7,4 C 82 % 1000,2 hPa 0,0 l/m 2,5 km/h N 4,5 C 7,4 C 10,1 km/h
21.11.2013 18:00 7,4 C 82 % 1000,3 hPa 0,0 l/m 2,7 km/h N 4,5 C 7,4 C 12,9 km/h
21.11.2013 19:00 7,3 C 81 % 1000,6 hPa 0,0 l/m 2,3 km/h N 4,3 C 7,3 C 13,3 km/h
21.11.2013 20:00 7,2 C 81 % 1000,9 hPa 0,0 l/m 1,5 km/h N 4,1 C 7,2 C 7,6 km/h
21.11.2013 21:00 7,2 C 80 % 1000,8 hPa 0,0 l/m 4,4 km/h N 4,0 C 7,1 C 12,5 km/h
21.11.2013 22:00 7,2 C 80 % 1000,9 hPa 0,0 l/m 3,9 km/h N 3,9 C 7,2 C 12,9 km/h
21.11.2013 23:00 6,9 C 80 % 1001,2 hPa 0,0 l/m 1,3 km/h N 3,7 C 6,9 C 6,8 km/h
22.11.2013 00:00 6,5 C 80 % 1001,2 hPa 0,0 l/m 2,7 km/h N 3,3 C 6,5 C 8,5 km/h
22.11.2013 01:00 6,1 C 81 % 1001,1 hPa 0,0 l/m 1,4 km/h N 3,1 C 6,1 C 7,6 km/h
22.11.2013 02:00 5,8 C 81 % 1001,4 hPa 0,0 l/m 2,4 km/h N 2,7 C 5,8 C 11,3 km/h
22.11.2013 03:00 5,6 C 81 % 1001,5 hPa 0,0 l/m 0,7 km/h N 2,6 C 5,6 C 6,9 km/h
22.11.2013 04:00 5,3 C 81 % 1001,9 hPa 0,0 l/m 1,6 km/h N 2,3 C 5,3 C 8,0 km/h
22.11.2013 05:00 5,1 C 81 % 1002,3 hPa 0,0 l/m 1,6 km/h N 2,1 C 5,1 C 9,7 km/h
22.11.2013 06:00 4,9 C 81 % 1002,8 hPa 0,0 l/m 3,2 km/h N 2,0 C 4,9 C 8,9 km/h
22.11.2013 07:00 4,8 C 81 % 1003,5 hPa 0,0 l/m 4,0 km/h N 1,8 C 4,8 C 12,1 km/h
22.11.2013 08:00 5,4 C 81 % 1004,0 hPa 0,0 l/m 3,2 km/h N 2,4 C 5,4 C 11,3 km/h
22.11.2013 09:00 5,8 C 83 % 1004,3 hPa 0,0 l/m 4,8 km/h N 3,1 C 5,8 C 21,7 km/h
22.11.2013 10:00 6,1 C 85 % 1004,7 hPa 0,0 l/m 4,0 km/h N 3,7 C 6,1 C 14,5 km/h
22.11.2013 11:00 6,2 C 85 % 1004,6 hPa 0,0 l/m 1,6 km/h N 3,9 C 6,2 C 13,7 km/h
22.11.2013 12:00 6,1 C 86 % 1004,6 hPa 0,0 l/m 1,6 km/h N 4,0 C 6,1 C 10,5 km/h
22.11.2013 13:00 6,4 C 86 % 1005,0 hPa 0,0 l/m 1,6 km/h N 4,1 C 6,4 C 8,0 km/h
22.11.2013 14:00 6,4 C 85 % 1005,3 hPa 0,0 l/m 0,8 km/h N 4,1 C 6,4 C 6,4 km/h
22.11.2013 15:00 6,4 C 85 % 1005,5 hPa 0,0 l/m 0,0 km/h N 4,1 C 6,4 C 5,6 km/h
22.11.2013 16:00 6,3 C 86 % 1005,6 hPa 0,0 l/m 0,0 km/h N 4,1 C 6,3 C 4,8 km/h
22.11.2013 17:00 6,4 C 86 % 1006,4 hPa 0,0 l/m 0,0 km/h N 4,2 C 6,4 C 2,4 km/h
22.11.2013 18:00 6,4 C 86 % 1006,8 hPa 0,0 l/m 0,0 km/h N 4,3 C 6,4 C 0,0 km/h
22.11.2013 19:00 6,6 C 85 % 1007,2 hPa 0,0 l/m 0,0 km/h N 4,2 C 6,6 C 0,8 km/h
22.11.2013 20:00 6,7 C 85 % 1007,5 hPa 0,0 l/m 0,0 km/h N 4,4 C 6,7 C 4,0 km/h
22.11.2013 21:00 6,8 C 85 % 1007,8 hPa 0,3 l/m 0,0 km/h N 4,5 C 6,8 C 1,6 km/h
22.11.2013 22:00 6,7 C 84 % 1007,8 hPa 0,0 l/m 0,0 km/h N 4,2 C 6,7 C 0,0 km/h
22.11.2013 23:00 6,8 C 83 % 1008,1 hPa 0,3 l/m 0,0 km/h N 4,2 C 6,8 C 1,1 km/h
23.11.2013 00:00 7,1 C 83 % 1007,9 hPa 0,3 l/m 0,0 km/h N 4,4 C 7,1 C 0,8 km/h
23.11.2013 01:00 7,2 C 82 % 1007,8 hPa 1,3 l/m 0,0 km/h N 4,4 C 7,2 C 1,2 km/h
23.11.2013 02:00 7,3 C 82 % 1008,0 hPa 1,6 l/m 0,6 km/h N 4,3 C 7,3 C 4,4 km/h
23.11.2013 03:00 6,9 C 81 % 1007,9 hPa 1,6 l/m 1,9 km/h N 3,9 C 6,9 C 8,1 km/h
23.11.2013 04:00 6,8 C 80 % 1007,9 hPa 0,8 l/m 0,9 km/h N 3,6 C 6,8 C 4,8 km/h
23.11.2013 05:00 6,7 C 80 % 1008,1 hPa 1,0 l/m 0,6 km/h N 3,5 C 6,7 C 4,8 km/h
23.11.2013 06:00 6,6 C 80 % 1008,3 hPa 0,8 l/m 0,5 km/h N 3,4 C 6,6 C 4,8 km/h
23.11.2013 07:00 6,6 C 80 % 1008,7 hPa 0,5 l/m 0,6 km/h N 3,4 C 6,6 C 5,6 km/h
23.11.2013 08:00 6,6 C 80 % 1008,9 hPa 0,0 l/m 1,5 km/h N 3,4 C 6,6 C 7,3 km/h
23.11.2013 09:00 6,9 C 80 % 1009,0 hPa 0,0 l/m 2,4 km/h N 3,7 C 6,9 C 8,9 km/h
23.11.2013 10:00 7,5 C 83 % 1009,3 hPa 0,0 l/m 2,6 km/h N 4,7 C 7,5 C 10,5 km/h
23.11.2013 11:00 7,8 C 86 % 1009,0 hPa 0,0 l/m 2,9 km/h N 5,5 C 7,8 C 12,9 km/h
23.11.2013 12:00 8,3 C 85 % 1008,7 hPa 0,0 l/m 3,8 km/h N 5,9 C 8,3 C 11,7 km/h
23.11.2013 13:00 8,7 C 83 % 1008,6 hPa 0,0 l/m 1,8 km/h N 6,0 C 8,7 C 8,9 km/h
23.11.2013 14:00 8,8 C 83 % 1008,5 hPa 0,3 l/m 1,9 km/h N 6,0 C 8,8 C 9,3 km/h
23.11.2013 15:00 8,2 C 85 % 1008,6 hPa 0,5 l/m 1,7 km/h N 5,7 C 8,2 C 8,0 km/h
23.11.2013 16:00 7,9 C 84 % 1008,7 hPa 0,0 l/m 2,2 km/h N 5,4 C 7,9 C 10,9 km/h
23.11.2013 17:00 7,9 C 83 % 1009,0 hPa 0,0 l/m 2,7 km/h N 5,1 C 7,9 C 12,1 km/h
23.11.2013 18:00 7,6 C 83 % 1008,9 hPa 0,3 l/m 2,2 km/h N 5,0 C 7,6 C 11,7 km/h
23.11.2013 19:00 7,0 C 85 % 1008,9 hPa 2,6 l/m 2,4 km/h N 4,7 C 7,0 C 10,5 km/h
23.11.2013 20:00 6,7 C 85 % 1008,9 hPa 1,3 l/m 2,2 km/h N 4,3 C 6,7 C 9,3 km/h
23.11.2013 21:00 6,7 C 84 % 1008,6 hPa 0,0 l/m 4,3 km/h N 4,2 C 6,7 C 14,5 km/h
23.11.2013 22:00 6,7 C 84 % 1008,7 hPa 0,0 l/m 3,2 km/h N 4,2 C 6,7 C 10,5 km/h
23.11.2013 23:00 6,7 C 84 % 1008,8 hPa 0,5 l/m 1,8 km/h N 4,2 C 6,7 C 8,4 km/h
24.11.2013 00:00 6,7 C 84 % 1008,3 hPa 0,5 l/m 3,6 km/h N 4,2 C 6,7 C 9,3 km/h
24.11.2013 01:00 6,8 C 84 % 1008,0 hPa 0,8 l/m 3,8 km/h N 4,2 C 6,8 C 12,5 km/h
24.11.2013 02:00 7,0 C 83 % 1007,9 hPa 0,5 l/m 3,1 km/h N 4,2 C 7,0 C 8,9 km/h
24.11.2013 03:00 7,2 C 82 % 1007,9 hPa 1,0 l/m 2,5 km/h N 4,3 C 7,2 C 9,3 km/h
24.11.2013 04:00 7,2 C 82 % 1007,7 hPa 1,8 l/m 3,3 km/h N 4,2 C 7,2 C 10,1 km/h
24.11.2013 05:00 7,3 C 81 % 1007,6 hPa 0,8 l/m 3,3 km/h N 4,2 C 7,3 C 9,7 km/h
24.11.2013 06:00 7,4 C 81 % 1007,3 hPa 0,3 l/m 3,5 km/h N 4,4 C 7,4 C 12,1 km/h
24.11.2013 07:00 7,4 C 81 % 1007,6 hPa 0,3 l/m 3,3 km/h N 4,4 C 7,4 C 12,9 km/h
24.11.2013 08:00 7,6 C 81 % 1008,0 hPa 0,0 l/m 4,1 km/h N 4,5 C 7,6 C 12,4 km/h
24.11.2013 09:00 7,6 C 81 % 1008,0 hPa 0,0 l/m 4,8 km/h N 4,6 C 7,6 C 16,1 km/h
24.11.2013 10:00 7,7 C 82 % 1008,3 hPa 0,3 l/m 4,8 km/h N 4,8 C 7,7 C 16,1 km/h
24.11.2013 11:00 7,9 C 82 % 1008,0 hPa 0,8 l/m 3,4 km/h N 5,0 C 7,9 C 12,4 km/h
24.11.2013 12:00 7,9 C 83 % 1007,8 hPa 0,5 l/m 5,0 km/h N 5,2 C 7,9 C 16,9 km/h
24.11.2013 13:00 7,9 C 83 % 1007,8 hPa 0,5 l/m 5,8 km/h N 5,1 C 7,9 C 17,7 km/h
24.11.2013 14:00 7,8 C 84 % 1007,9 hPa 1,0 l/m 7,8 km/h N 5,2 C 6,7 C 22,1 km/h
24.11.2013 15:00 7,5 C 85 % 1008,4 hPa 0,3 l/m 9,8 km/h N 5,2 C 5,0 C 26,5 km/h
24.11.2013 16:00 6,9 C 86 % 1009,2 hPa 0,5 l/m 12,0 km/h N 4,7 C 3,0 C 32,6 km/h
24.11.2013 17:00 6,1 C 86 % 1010,0 hPa 0,3 l/m 11,0 km/h N 4,0 C 2,7 C 31,0 km/h
24.11.2013 18:00 5,7 C 85 % 1010,6 hPa 0,0 l/m 11,6 km/h N 3,4 C 1,9 C 31,0 km/h
24.11.2013 19:00 5,1 C 83 % 1011,2 hPa 0,0 l/m 14,4 km/h N 2,4 C -0,4 C 31,0 km/h
24.11.2013 20:00 4,6 C 80 % 1011,7 hPa 0,0 l/m 10,6 km/h N 1,4 C 1,3 C 27,4 km/h
24.11.2013 21:00 4,8 C 78 % 1012,2 hPa 0,0 l/m 9,5 km/h N 1,2 C 2,2 C 27,0 km/h
24.11.2013 22:00 4,8 C 77 % 1012,6 hPa 0,0 l/m 10,8 km/h N 1,1 C 1,3 C 30,2 km/h
24.11.2013 23:00 4,7 C 77 % 1012,7 hPa 0,0 l/m 11,6 km/h N 0,9 C 0,7 C 30,2 km/h
Min-Datum _ 24.11.13 24.11.13 21.11.13 - 19.11.13 - 24.11.13 24.11.13 20.11.13
_ Min-Zeit 20:15 23:45 14:30 - 00:30 - 23:45 19:15 01:00
Minimum _ 4,6 C 75 % 999,4 hPa - 0,0 km/h - 0,6 C -1,6 C 0,0 km/h
Max-Datum _ 18.11.13 18.11.13 18.11.13 23.11.13 24.11.13 - 23.11.13 23.11.13 24.11.13
_ Max-Zeit 15:00 07:30 00:00 19:30 19:15 - 13:45 13:45 17:00
Maximum _ 8,8 C 88 % 1021,2 hPa 2,6 l/m 17,0 km/h
N
- 6,1 C 8,8 C 41,8 km/h
N
Durchschnitt _ 6,5 C 83 % 1007,4 hPa #26,3 l/m 3,3 km/h N 3,8 C 6,1 C 11,3 km/h